createdAt,value
2018-04-14T00:00:25.676Z,121.40
2018-04-14T00:02:55.442Z,219.80
2018-04-14T00:05:24.497Z,231.57
2018-04-14T00:07:53.455Z,33.90
2018-04-14T00:10:22.658Z,32.27
2018-04-14T00:12:51.856Z,64.33
2018-04-14T00:15:20.740Z,116.43
2018-04-14T00:17:49.762Z,287.93
2018-04-14T00:20:20.420Z,92.67
2018-04-14T00:22:49.571Z,78.47
2018-04-14T00:25:18.777Z,56.10
2018-04-14T00:27:47.969Z,80.47
2018-04-14T00:30:17.790Z,71.03
2018-04-14T00:32:48.635Z,97.40
2018-04-14T00:35:17.620Z,119.70
2018-04-14T00:37:47.287Z,36.30
2018-04-14T00:40:16.238Z,29.90
2018-04-14T00:42:45.063Z,30.90
2018-04-14T00:45:14.387Z,30.70
2018-04-14T00:47:45.221Z,26.80
2018-04-14T00:50:14.308Z,31.30
2018-04-14T00:52:44.299Z,29.47
2018-04-14T00:55:13.467Z,32.10
2018-04-14T00:57:42.551Z,35.47
2018-04-14T01:00:11.715Z,100.80
2018-04-14T01:02:40.720Z,121.53
2018-04-14T01:05:09.961Z,147.57
2018-04-14T01:07:38.801Z,95.10
2018-04-14T01:10:08.098Z,115.73
2018-04-14T01:12:37.734Z,212.20
2018-04-14T01:15:06.706Z,92.23
2018-04-14T01:17:36.519Z,376.03
2018-04-14T01:20:05.511Z,131.63
2018-04-14T01:22:34.732Z,412.73
2018-04-14T01:25:04.694Z,166.83
2018-04-14T01:27:34.475Z,131.43
2018-04-14T01:30:04.458Z,129.50
2018-04-14T01:32:35.264Z,148.07
2018-04-14T01:35:06.285Z,237.50
2018-04-14T01:37:35.267Z,179.47
2018-04-14T01:40:07.917Z,195.80
2018-04-14T01:42:37.105Z,189.07
2018-04-14T01:45:06.041Z,191.13
2018-04-14T01:47:35.500Z,145.53
2018-04-14T01:50:04.608Z,188.33
2018-04-14T01:52:34.450Z,130.63
2018-04-14T01:55:05.895Z,245.90
2018-04-14T01:57:35.866Z,330.67
2018-04-14T02:00:05.079Z,170.73
2018-04-14T02:02:35.004Z,160.30
2018-04-14T02:05:04.922Z,146.20
2018-04-14T02:07:33.904Z,175.10
2018-04-14T02:10:03.139Z,146.90
2018-04-14T02:12:32.882Z,338.00
2018-04-14T02:15:02.740Z,238.27
2018-04-14T02:17:32.643Z,108.97
2018-04-14T02:20:01.625Z,108.53
2018-04-14T02:22:30.841Z,118.70
2018-04-14T02:24:59.831Z,197.83
2018-04-14T02:27:28.928Z,135.30
2018-04-14T02:29:57.964Z,221.43
2018-04-14T02:32:26.966Z,191.00
2018-04-14T02:34:57.036Z,221.07
2018-04-14T02:37:26.232Z,204.57
2018-04-14T02:39:55.881Z,220.63
2018-04-14T02:42:24.947Z,421.17
2018-04-14T02:44:55.071Z,194.53
2018-04-14T02:47:24.189Z,411.47
2018-04-14T02:49:53.256Z,350.03
2018-04-14T02:52:23.061Z,329.63
2018-04-14T02:54:52.106Z,336.63
2018-04-14T02:57:22.077Z,332.00
2018-04-14T02:59:51.217Z,284.33
2018-04-14T03:02:20.379Z,380.37
2018-04-14T03:04:50.300Z,432.43
2018-04-14T03:07:19.283Z,295.23
2018-04-14T03:12:23.275Z,213.53
2018-04-14T03:14:53.813Z,170.90
2018-04-14T03:17:23.761Z,279.83
2018-04-14T03:19:52.954Z,200.57
2018-04-14T03:22:22.152Z,210.43
2018-04-14T03:24:51.257Z,270.60
2018-04-14T03:27:20.285Z,87.97
2018-04-14T03:29:49.343Z,166.57
2018-04-14T03:32:19.308Z,135.37
2018-04-14T03:34:48.359Z,165.57
2018-04-14T03:37:17.472Z,75.20
2018-04-14T03:39:47.404Z,192.70
2018-04-14T03:42:17.176Z,319.13
2018-04-14T03:44:47.193Z,270.03
2018-04-14T03:47:18.858Z,141.97
2018-04-14T03:49:48.976Z,380.70
2018-04-14T03:52:18.062Z,244.57
2018-04-14T03:54:48.786Z,371.30
2018-04-14T03:57:17.901Z,294.30
2018-04-14T03:59:46.995Z,264.97
2018-04-14T04:02:17.048Z,440.07
2018-04-14T04:04:46.060Z,140.17
2018-04-14T04:07:15.001Z,173.43
2018-04-14T04:09:56.198Z,219.30
2018-04-14T04:12:25.389Z,269.20
2018-04-14T04:14:54.372Z,199.23
2018-04-14T04:20:17.383Z,181.67
2018-04-14T04:22:58.116Z,234.20
2018-04-14T04:25:40.214Z,77.10
2018-04-14T04:28:09.130Z,527.77
2018-04-14T04:30:37.809Z,337.67
2018-04-14T04:33:06.625Z,205.30
2018-04-14T04:35:36.197Z,124.70
2018-04-14T04:38:04.989Z,222.43
2018-04-14T04:40:36.228Z,190.57
2018-04-14T04:43:05.107Z,187.93
2018-04-14T04:45:33.806Z,172.93
2018-04-14T04:48:05.149Z,185.03
2018-04-14T04:50:34.248Z,300.57
2018-04-14T04:53:03.961Z,140.37
2018-04-14T04:55:34.629Z,127.53
2018-04-14T04:58:04.097Z,141.10
2018-04-14T05:00:33.854Z,91.77
2018-04-14T05:03:04.443Z,233.37
2018-04-14T05:05:33.136Z,120.50
2018-04-14T05:08:02.676Z,152.40
2018-04-14T05:10:32.183Z,146.73
2018-04-14T05:13:00.828Z,147.73
2018-04-14T05:15:29.417Z,101.83
2018-04-14T05:18:03.325Z,111.40
2018-04-14T05:20:32.007Z,53.17
2018-04-14T05:23:00.690Z,108.70
2018-04-14T05:25:30.853Z,147.87
2018-04-14T05:27:59.556Z,172.07
2018-04-14T05:30:29.317Z,110.03
2018-04-14T05:32:58.923Z,127.27
2018-04-14T05:35:28.508Z,98.93
2018-04-14T05:37:57.121Z,130.53
2018-04-14T05:40:26.045Z,160.40
2018-04-14T05:42:55.004Z,117.53
2018-04-14T05:45:23.791Z,152.07
2018-04-14T05:47:53.400Z,52.17
2018-04-14T05:50:22.198Z,129.10
2018-04-14T05:52:50.919Z,123.67
2018-04-14T05:55:19.868Z,170.27
2018-04-14T05:57:49.070Z,137.77
2018-04-14T06:00:17.843Z,200.37
2018-04-14T06:02:46.705Z,86.50
2018-04-14T06:05:15.393Z,138.10
2018-04-14T06:07:45.664Z,141.70
2018-04-14T06:10:15.522Z,169.90
2018-04-14T06:12:44.309Z,298.63
2018-04-14T06:15:13.197Z,70.93
2018-04-14T06:17:54.223Z,183.37
2018-04-14T06:20:23.120Z,287.10
2018-04-14T06:22:51.806Z,304.13
2018-04-14T06:27:55.569Z,146.07
2018-04-14T06:30:24.353Z,88.60
2018-04-14T06:32:54.021Z,52.43
2018-04-14T06:35:23.531Z,70.57
2018-04-14T06:37:53.144Z,78.00
2018-04-14T06:40:23.559Z,31.47
2018-04-14T06:42:52.357Z,19.27
2018-04-14T06:45:21.150Z,59.73
2018-04-14T06:47:51.885Z,84.43
2018-04-14T06:50:21.317Z,31.93
2018-04-14T06:52:50.017Z,92.37
2018-04-14T06:55:18.756Z,9.83
2018-04-14T06:57:48.428Z,20.07
2018-04-14T07:00:17.097Z,46.67
2018-04-14T07:02:45.873Z,29.63
2018-04-14T07:05:15.530Z,23.83
2018-04-14T07:07:44.565Z,90.60
2018-04-14T07:12:48.849Z,36.40
2018-04-14T07:15:17.518Z,50.87
2018-04-14T07:17:46.159Z,17.63
2018-04-14T07:20:16.702Z,18.90
2018-04-14T07:22:48.491Z,19.50
2018-04-14T07:25:18.018Z,8.90
2018-04-14T07:27:46.738Z,11.43
2018-04-14T07:30:16.655Z,7.20
2018-04-14T07:32:45.865Z,11.57
2018-04-14T07:35:14.544Z,9.03
2018-04-14T07:37:43.843Z,5.37
2018-04-14T07:40:12.632Z,7.83
2018-04-14T07:42:41.456Z,11.97
2018-04-14T07:45:10.108Z,6.60
2018-04-14T07:47:40.767Z,7.37
2018-04-14T07:50:10.147Z,11.03
2018-04-14T07:52:39.702Z,7.27
2018-04-14T07:55:12.538Z,11.00
2018-04-14T07:57:42.406Z,7.63
2018-04-14T08:00:11.761Z,10.73
2018-04-14T08:02:41.462Z,8.40
2018-04-14T08:05:10.467Z,16.30
2018-04-14T08:07:40.066Z,16.60
2018-04-14T08:12:42.492Z,15.40
2018-04-14T08:15:11.279Z,9.30
2018-04-14T08:17:40.984Z,8.00
2018-04-14T08:20:09.644Z,10.97
2018-04-14T08:22:38.536Z,17.00
2018-04-14T08:27:42.322Z,8.97
2018-04-14T08:30:12.065Z,9.10
2018-04-14T08:32:42.500Z,12.43
2018-04-14T08:35:12.969Z,8.57
2018-04-14T08:37:41.855Z,18.27
2018-04-14T08:40:10.666Z,13.20
2018-04-14T08:42:39.359Z,15.13
2018-04-14T08:45:08.204Z,7.57
2018-04-14T08:47:37.793Z,9.93
2018-04-14T08:50:06.436Z,12.03
2018-04-14T08:52:35.168Z,10.20
2018-04-14T08:55:04.828Z,12.77
2018-04-14T08:57:34.534Z,12.23
2018-04-14T09:00:03.480Z,11.27
2018-04-14T09:05:07.518Z,8.93
2018-04-14T09:07:36.411Z,12.00
2018-04-14T09:10:08.623Z,11.80
2018-04-14T09:12:40.886Z,12.00
2018-04-14T09:15:23.964Z,10.63
2018-04-14T09:17:53.171Z,8.60
2018-04-14T09:20:22.256Z,7.87
2018-04-14T09:22:51.355Z,7.83
2018-04-14T09:25:21.218Z,7.93
2018-04-14T09:27:50.170Z,7.03
2018-04-14T09:33:01.000Z,13.03
2018-04-14T09:35:30.153Z,8.27
2018-04-14T09:38:01.563Z,6.70
2018-04-14T09:40:34.388Z,7.30
2018-04-14T09:43:03.943Z,7.33
2018-04-14T09:45:33.954Z,6.77
2018-04-14T09:48:03.012Z,6.00
2018-04-14T09:50:32.102Z,6.70
2018-04-14T09:53:02.124Z,5.97
2018-04-14T09:55:31.152Z,6.27
2018-04-14T09:58:00.244Z,8.73
2018-04-14T10:00:29.358Z,6.80
2018-04-14T10:03:02.605Z,9.60
2018-04-14T10:05:31.810Z,6.37
2018-04-14T10:08:00.790Z,6.20
2018-04-14T10:10:30.693Z,6.17
2018-04-14T10:12:59.979Z,6.30
2018-04-14T10:15:29.616Z,6.70
2018-04-14T10:18:00.563Z,6.40
2018-04-14T10:20:29.651Z,6.23
2018-04-14T10:22:58.597Z,6.70
2018-04-14T10:25:27.547Z,6.97
2018-04-14T10:27:57.501Z,9.67
2018-04-14T10:30:27.573Z,6.53
2018-04-14T10:32:56.744Z,11.20
2018-04-14T10:35:25.666Z,7.50
2018-04-14T10:37:55.050Z,6.67
2018-04-14T10:40:26.627Z,7.20
2018-04-14T10:42:55.737Z,7.43
2018-04-14T10:45:24.731Z,6.93
2018-04-14T10:47:54.835Z,6.83
2018-04-14T10:50:23.802Z,7.90
2018-04-14T10:52:53.568Z,7.83
2018-04-14T10:55:25.206Z,5.97
2018-04-14T10:57:54.192Z,7.43
2018-04-14T11:00:23.293Z,5.30
2018-04-14T11:02:53.247Z,5.50
2018-04-14T11:05:24.758Z,6.83
2018-04-14T11:07:53.887Z,7.23
2018-04-14T11:10:22.985Z,6.50
2018-04-14T11:12:52.666Z,5.63
2018-04-14T11:15:22.071Z,4.63
2018-04-14T11:17:58.231Z,5.40
2018-04-14T11:20:27.506Z,4.50
2018-04-14T11:22:57.292Z,8.13
2018-04-14T11:25:27.810Z,5.73
2018-04-14T11:27:56.821Z,7.67
2018-04-14T11:30:25.908Z,7.23
2018-04-14T11:32:57.723Z,7.97
2018-04-14T11:35:27.679Z,6.10
2018-04-14T11:37:56.640Z,8.50
2018-04-14T11:43:00.915Z,6.87
2018-04-14T11:45:30.680Z,5.50
2018-04-14T11:48:01.652Z,5.50
2018-04-14T11:50:30.924Z,6.13
2018-04-14T11:53:00.056Z,5.17
2018-04-14T11:55:31.571Z,6.00
2018-04-14T11:58:00.669Z,6.17
2018-04-14T12:00:29.864Z,6.60
2018-04-14T12:03:00.609Z,6.93
2018-04-14T12:05:29.634Z,6.70
2018-04-14T12:07:58.693Z,6.53
2018-04-14T12:10:27.799Z,8.00
2018-04-14T12:12:56.782Z,10.63
2018-04-14T12:15:26.738Z,10.00
2018-04-14T12:17:56.639Z,6.90
2018-04-14T12:20:25.737Z,10.90
2018-04-14T12:22:54.748Z,10.30
2018-04-14T12:25:24.566Z,11.33
2018-04-14T12:27:53.716Z,12.30
2018-04-14T12:30:23.889Z,12.20
2018-04-14T12:32:52.852Z,13.40
2018-04-14T12:35:21.858Z,13.67
2018-04-14T12:40:33.977Z,13.10
2018-04-14T12:43:02.941Z,11.33
2018-04-14T12:45:34.595Z,10.70
2018-04-14T12:48:05.027Z,11.60
2018-04-14T12:50:34.272Z,10.47
2018-04-14T12:53:03.321Z,11.60
2018-04-14T12:55:33.145Z,15.70
2018-04-14T12:58:02.273Z,15.40
2018-04-14T13:00:31.555Z,14.20
2018-04-14T13:03:00.666Z,17.90
2018-04-14T13:05:29.750Z,14.27
2018-04-14T13:07:58.973Z,14.63
2018-04-14T13:10:28.152Z,14.23
2018-04-14T13:12:58.340Z,16.87
2018-04-14T13:15:27.998Z,16.03
2018-04-14T13:17:56.960Z,17.23
2018-04-14T13:20:25.870Z,18.63
2018-04-14T13:22:54.829Z,16.63
2018-04-14T13:25:24.785Z,13.20
2018-04-14T13:27:53.842Z,12.13
2018-04-14T13:30:24.441Z,14.60
2018-04-14T13:32:54.593Z,16.80
2018-04-14T13:35:23.827Z,16.17
2018-04-14T13:37:53.027Z,16.13
2018-04-14T13:40:22.748Z,27.50
2018-04-14T13:42:51.653Z,13.20
2018-04-14T13:45:21.558Z,18.83
2018-04-14T13:47:50.401Z,14.37
2018-04-14T13:50:19.322Z,18.53
2018-04-14T13:55:22.909Z,17.23
2018-04-14T13:57:52.823Z,17.10
2018-04-14T14:00:22.746Z,13.30
2018-04-14T14:02:51.777Z,16.23
2018-04-14T14:05:20.735Z,25.40
2018-04-14T14:07:52.686Z,20.43
2018-04-14T14:10:21.895Z,21.13
2018-04-14T14:12:51.816Z,27.67
2018-04-14T14:15:22.661Z,25.47
2018-04-14T14:17:53.564Z,21.63
2018-04-14T14:20:23.026Z,28.50
2018-04-14T14:22:54.101Z,26.63
2018-04-14T14:25:23.092Z,22.00
2018-04-14T14:27:52.154Z,29.00
2018-04-14T14:30:21.155Z,27.80
2018-04-14T14:32:50.204Z,28.50
2018-04-14T14:35:19.244Z,32.87
2018-04-14T14:37:54.242Z,29.43
2018-04-14T14:40:23.585Z,29.53
2018-04-14T14:42:52.654Z,27.73
2018-04-14T14:45:23.341Z,28.30
2018-04-14T14:47:52.471Z,28.30
2018-04-14T14:50:26.889Z,28.93
2018-04-14T14:52:55.967Z,37.40
2018-04-14T14:55:26.836Z,30.33
2018-04-14T14:57:58.121Z,34.53
2018-04-14T15:00:27.217Z,23.93
2018-04-14T15:02:56.623Z,30.87
2018-04-14T15:08:00.952Z,32.60
2018-04-14T15:10:29.907Z,36.50
2018-04-14T15:13:01.980Z,35.70
2018-04-14T15:15:31.477Z,32.60
2018-04-14T15:18:02.004Z,37.20
2018-04-14T15:20:31.131Z,31.70
2018-04-14T15:23:00.101Z,29.20
2018-04-14T15:25:29.300Z,36.70
2018-04-14T15:27:58.499Z,34.77
2018-04-14T15:30:27.496Z,35.03
2018-04-14T15:32:56.488Z,35.43
2018-04-14T15:35:25.675Z,34.83
2018-04-14T15:37:55.493Z,37.87
2018-04-14T15:40:25.638Z,34.00
2018-04-14T15:42:56.753Z,36.87
2018-04-14T15:45:25.755Z,38.00
2018-04-14T15:47:54.964Z,33.50
2018-04-14T15:50:25.472Z,41.43
2018-04-14T15:52:54.677Z,42.27
2018-04-14T15:55:23.668Z,36.20
2018-04-14T15:57:53.443Z,43.17
2018-04-14T16:00:22.631Z,38.63
2018-04-14T16:02:52.425Z,48.20
2018-04-14T16:05:25.079Z,44.40
2018-04-14T16:07:55.311Z,46.10
2018-04-14T16:10:25.352Z,44.40
2018-04-14T16:12:55.780Z,49.83
2018-04-14T16:15:24.750Z,48.27
2018-04-14T16:20:28.397Z,47.10
2018-04-14T16:22:57.602Z,47.77
2018-04-14T16:25:29.422Z,45.40
2018-04-14T16:27:58.914Z,52.67
2018-04-14T16:30:28.809Z,48.33
2018-04-14T16:33:02.572Z,41.93
2018-04-14T16:35:32.313Z,41.23
2018-04-14T16:38:01.455Z,55.43
2018-04-14T16:40:32.500Z,58.00
2018-04-14T16:43:03.136Z,53.97
2018-04-14T16:45:34.378Z,57.63
2018-04-14T16:48:04.607Z,53.50
2018-04-14T16:50:34.007Z,54.20
2018-04-14T16:53:03.204Z,45.07
2018-04-14T16:55:35.275Z,51.67
2018-04-14T16:58:04.467Z,40.30
2018-04-14T17:00:33.706Z,37.53
2018-04-14T17:03:03.790Z,42.67
2018-04-14T17:05:37.049Z,40.77
2018-04-14T17:08:06.117Z,53.87
2018-04-14T17:10:35.221Z,45.37
2018-04-14T17:13:04.315Z,45.50
2018-04-14T17:15:33.195Z,52.53
2018-04-14T17:18:02.253Z,54.50
2018-04-14T17:20:33.155Z,58.17
2018-04-14T17:23:02.190Z,65.53
2018-04-14T17:25:31.978Z,48.07
2018-04-14T17:28:02.723Z,50.87
2018-04-14T17:30:31.832Z,58.07
2018-04-14T17:33:01.235Z,48.50
2018-04-14T17:38:04.632Z,50.17
2018-04-14T17:40:34.565Z,42.83
2018-04-14T17:43:03.649Z,44.03
2018-04-14T17:45:32.600Z,46.63
2018-04-14T17:48:01.818Z,56.07
2018-04-14T17:50:31.837Z,62.60
2018-04-14T17:53:00.976Z,47.30
2018-04-14T17:55:29.970Z,50.23
2018-04-14T17:58:00.699Z,57.07
2018-04-14T18:00:30.311Z,64.67
2018-04-14T18:02:59.614Z,68.43
2018-04-14T18:05:31.267Z,60.70
2018-04-14T18:08:00.607Z,66.23
2018-04-14T18:10:29.707Z,56.80
2018-04-14T18:13:00.576Z,60.83
2018-04-14T18:15:29.637Z,55.40
2018-04-14T18:17:58.955Z,54.27
2018-04-14T18:20:28.997Z,53.63
2018-04-14T18:23:00.474Z,54.77
2018-04-14T18:25:32.726Z,59.03
2018-04-14T18:28:04.710Z,53.40
2018-04-14T18:30:35.749Z,53.93
2018-04-14T18:33:04.869Z,68.40
2018-04-14T18:35:34.203Z,59.30
2018-04-14T18:38:03.454Z,65.37
2018-04-14T18:40:33.981Z,78.20
2018-04-14T18:43:04.039Z,61.90
2018-04-14T18:45:35.791Z,62.10
2018-04-14T18:48:08.429Z,54.80
2018-04-14T18:50:37.689Z,52.73
2018-04-14T18:53:06.875Z,51.07
2018-04-14T18:55:35.929Z,55.50
2018-04-14T18:58:05.237Z,46.93
2018-04-14T19:00:34.440Z,65.13
2018-04-14T19:03:05.287Z,48.43
2018-04-14T19:05:34.463Z,55.50
2018-04-14T19:08:05.660Z,48.03
2018-04-14T19:10:36.508Z,61.83
2018-04-14T19:13:05.743Z,47.30
2018-04-14T19:15:34.686Z,54.00
2018-04-14T19:20:42.560Z,52.43
2018-04-14T19:23:12.104Z,48.87
2018-04-14T19:25:41.900Z,46.57
2018-04-14T19:28:10.980Z,54.57
2018-04-14T19:30:40.893Z,50.77
2018-04-14T19:33:10.747Z,50.73
2018-04-14T19:35:44.413Z,51.50
2018-04-14T19:38:14.539Z,42.80
2018-04-14T19:40:43.476Z,41.70
2018-04-14T19:45:49.035Z,40.70
2018-04-14T19:48:19.025Z,43.13
2018-04-14T19:50:48.196Z,47.43
2018-04-14T19:53:17.453Z,53.60
2018-04-14T19:55:47.537Z,43.13
2018-04-14T19:58:17.743Z,44.37
2018-04-14T20:00:46.701Z,38.73
2018-04-14T20:03:15.675Z,47.53
2018-04-14T20:05:45.340Z,34.23
2018-04-14T20:08:17.452Z,37.87
2018-04-14T20:10:46.505Z,41.37
2018-04-14T20:13:16.433Z,39.27
2018-04-14T20:15:46.027Z,39.63
2018-04-14T20:18:16.813Z,34.27
2018-04-14T20:20:45.960Z,33.60
2018-04-14T20:23:15.052Z,39.73
2018-04-14T20:25:44.162Z,35.87
2018-04-14T20:28:13.173Z,36.13
2018-04-14T20:30:42.286Z,36.77
2018-04-14T20:33:12.204Z,42.87
2018-04-14T20:35:41.259Z,40.70
2018-04-14T20:38:10.464Z,36.67
2018-04-14T20:40:40.357Z,39.60
2018-04-14T20:43:09.343Z,38.93
2018-04-14T20:45:38.353Z,41.73
2018-04-14T20:48:07.657Z,47.93
2018-04-14T20:50:36.964Z,40.47
2018-04-14T20:53:05.954Z,43.43
2018-04-14T20:55:35.169Z,41.53
2018-04-14T20:58:05.183Z,44.33
2018-04-14T21:00:34.271Z,44.03
2018-04-14T21:03:04.137Z,46.77
2018-04-14T21:05:33.233Z,50.87
2018-04-14T21:08:02.167Z,42.43
2018-04-14T21:10:33.056Z,42.87
2018-04-14T21:13:02.107Z,34.07
2018-04-14T21:15:31.402Z,37.50
2018-04-14T21:18:00.611Z,36.07
2018-04-14T21:20:29.703Z,36.73
2018-04-14T21:22:59.036Z,35.67
2018-04-14T21:25:28.756Z,44.00
2018-04-14T21:27:58.611Z,35.33
2018-04-14T21:30:27.827Z,37.10
2018-04-14T21:32:57.854Z,32.20
2018-04-14T21:35:26.949Z,35.20
2018-04-14T21:37:56.959Z,36.30
2018-04-14T21:40:26.059Z,50.87
2018-04-14T21:42:55.015Z,110.50
2018-04-14T21:45:25.594Z,88.40
2018-04-14T21:47:54.524Z,75.70
2018-04-14T21:50:23.929Z,106.23
2018-04-14T21:52:53.070Z,60.53
2018-04-14T21:57:55.974Z,46.67
2018-04-14T22:00:25.174Z,38.90
2018-04-14T22:02:54.286Z,36.33
2018-04-14T22:05:24.368Z,41.03
2018-04-14T22:07:54.413Z,42.87
2018-04-14T22:10:24.304Z,40.63
2018-04-14T22:12:54.147Z,41.43
2018-04-14T22:15:24.364Z,36.47
2018-04-14T22:17:54.146Z,36.90
2018-04-14T22:20:35.664Z,37.57
2018-04-14T22:23:23.478Z,39.53
2018-04-14T22:25:59.458Z,37.23
2018-04-14T22:28:28.961Z,41.20
2018-04-14T22:30:58.884Z,38.00
2018-04-14T22:33:28.433Z,38.30
2018-04-14T22:35:57.338Z,40.17
2018-04-14T22:38:26.369Z,40.20
2018-04-14T22:41:01.014Z,41.17
2018-04-14T22:43:29.999Z,42.00
2018-04-14T22:45:59.183Z,39.10
2018-04-14T22:48:28.698Z,41.83
2018-04-14T22:50:58.270Z,43.97
2018-04-14T22:53:27.405Z,42.80
2018-04-14T22:55:56.557Z,36.90
2018-04-14T22:58:25.600Z,38.00
2018-04-14T23:00:58.075Z,40.07
2018-04-14T23:03:27.954Z,36.10
2018-04-14T23:05:56.962Z,34.63
2018-04-14T23:08:27.692Z,41.73
2018-04-14T23:10:56.711Z,43.33
2018-04-14T23:13:26.728Z,41.97
2018-04-14T23:15:57.160Z,38.77
2018-04-14T23:18:26.254Z,39.40
2018-04-14T23:20:55.269Z,46.77
2018-04-14T23:23:25.464Z,46.23
2018-04-14T23:25:55.133Z,52.60
2018-04-14T23:28:24.221Z,50.10
2018-04-14T23:30:54.191Z,46.20
2018-04-14T23:33:23.238Z,48.23
2018-04-14T23:35:53.109Z,36.93
2018-04-14T23:38:22.402Z,45.57
2018-04-14T23:40:51.390Z,41.70
2018-04-14T23:43:20.696Z,45.30
2018-04-14T23:45:50.678Z,46.27
2018-04-14T23:48:19.648Z,41.73
2018-04-14T23:50:48.697Z,40.70
2018-04-14T23:53:18.671Z,41.10
2018-04-14T23:55:47.774Z,38.80
2018-04-14T23:58:17.523Z,44.40
